sensor_id;sensor_type;location;lat;lon;timestamp;temperature;humidity
39621;DHT22;25309;48.686;9.170;2023-06-10T00:02:07;19.90;86.70
39621;DHT22;25309;48.686;9.170;2023-06-10T00:04:36;19.90;86.80
39621;DHT22;25309;48.686;9.170;2023-06-10T00:07:03;19.90;87.00
39621;DHT22;25309;48.686;9.170;2023-06-10T00:09:30;20.00;87.20
39621;DHT22;25309;48.686;9.170;2023-06-10T00:11:58;19.90;87.50
39621;DHT22;25309;48.686;9.170;2023-06-10T00:14:27;19.90;87.50
39621;DHT22;25309;48.686;9.170;2023-06-10T00:16:54;19.90;87.50
39621;DHT22;25309;48.686;9.170;2023-06-10T00:19:22;19.90;87.80
39621;DHT22;25309;48.686;9.170;2023-06-10T00:21:53;19.80;88.10
39621;DHT22;25309;48.686;9.170;2023-06-10T00:24:20;19.70;88.40
39621;DHT22;25309;48.686;9.170;2023-06-10T00:26:47;19.70;88.50
39621;DHT22;25309;48.686;9.170;2023-06-10T00:29:14;19.60;88.50
39621;DHT22;25309;48.686;9.170;2023-06-10T00:31:41;19.50;89.00
39621;DHT22;25309;48.686;9.170;2023-06-10T00:34:09;19.40;89.10
39621;DHT22;25309;48.686;9.170;2023-06-10T00:36:36;19.30;89.40
39621;DHT22;25309;48.686;9.170;2023-06-10T00:39:04;19.30;89.80
39621;DHT22;25309;48.686;9.170;2023-06-10T00:41:31;19.20;90.10
39621;DHT22;25309;48.686;9.170;2023-06-10T00:44:00;19.10;90.30
39621;DHT22;25309;48.686;9.170;2023-06-10T00:46:27;19.10;90.40
39621;DHT22;25309;48.686;9.170;2023-06-10T00:48:55;19.10;90.40
39621;DHT22;25309;48.686;9.170;2023-06-10T00:51:22;19.10;90.40
39621;DHT22;25309;48.686;9.170;2023-06-10T00:53:49;19.10;90.60
39621;DHT22;25309;48.686;9.170;2023-06-10T00:56:18;19.00;90.70
39621;DHT22;25309;48.686;9.170;2023-06-10T00:58:45;19.00;90.80
39621;DHT22;25309;48.686;9.170;2023-06-10T01:01:14;19.00;90.80
39621;DHT22;25309;48.686;9.170;2023-06-10T01:03:41;19.00;90.80
39621;DHT22;25309;48.686;9.170;2023-06-10T01:06:24;19.10;91.10
39621;DHT22;25309;48.686;9.170;2023-06-10T01:09:02;19.10;91.10
39621;DHT22;25309;48.686;9.170;2023-06-10T01:11:45;19.10;91.20
39621;DHT22;25309;48.686;9.170;2023-06-10T01:14:14;19.10;91.20
39621;DHT22;25309;48.686;9.170;2023-06-10T01:16:44;19.10;91.20
39621;DHT22;25309;48.686;9.170;2023-06-10T01:19:12;19.10;91.20
39621;DHT22;25309;48.686;9.170;2023-06-10T01:21:42;19.00;91.10
39621;DHT22;25309;48.686;9.170;2023-06-10T01:24:11;18.90;91.00
39621;DHT22;25309;48.686;9.170;2023-06-10T01:26:41;18.80;91.20
39621;DHT22;25309;48.686;9.170;2023-06-10T01:29:14;18.70;91.40
39621;DHT22;25309;48.686;9.170;2023-06-10T01:31:43;18.60;91.60
39621;DHT22;25309;48.686;9.170;2023-06-10T01:34:14;18.60;91.80
39621;DHT22;25309;48.686;9.170;2023-06-10T01:36:46;18.50;91.90
39621;DHT22;25309;48.686;9.170;2023-06-10T01:39:15;18.40;91.90
39621;DHT22;25309;48.686;9.170;2023-06-10T01:41:43;18.40;92.00
39621;DHT22;25309;48.686;9.170;2023-06-10T01:44:10;18.40;92.00
39621;DHT22;25309;48.686;9.170;2023-06-10T01:46:39;18.40;92.10
39621;DHT22;25309;48.686;9.170;2023-06-10T01:49:06;18.40;92.20
39621;DHT22;25309;48.686;9.170;2023-06-10T01:51:33;18.30;92.50
39621;DHT22;25309;48.686;9.170;2023-06-10T01:54:02;18.20;92.70
39621;DHT22;25309;48.686;9.170;2023-06-10T01:56:29;18.20;92.80
39621;DHT22;25309;48.686;9.170;2023-06-10T01:58:56;18.20;92.70
39621;DHT22;25309;48.686;9.170;2023-06-10T02:01:26;18.20;92.80
39621;DHT22;25309;48.686;9.170;2023-06-10T02:03:53;18.20;92.70
39621;DHT22;25309;48.686;9.170;2023-06-10T02:06:20;18.20;92.70
39621;DHT22;25309;48.686;9.170;2023-06-10T02:08:47;18.20;92.80
39621;DHT22;25309;48.686;9.170;2023-06-10T02:11:15;18.10;92.90
39621;DHT22;25309;48.686;9.170;2023-06-10T02:13:42;18.10;92.90
39621;DHT22;25309;48.686;9.170;2023-06-10T02:16:09;18.10;92.90
39621;DHT22;25309;48.686;9.170;2023-06-10T02:21:09;18.00;93.10
39621;DHT22;25309;48.686;9.170;2023-06-10T02:23:37;17.90;93.10
39621;DHT22;25309;48.686;9.170;2023-06-10T02:26:04;17.90;93.20
39621;DHT22;25309;48.686;9.170;2023-06-10T02:28:33;17.90;93.40
39621;DHT22;25309;48.686;9.170;2023-06-10T02:31:00;17.80;93.70
39621;DHT22;25309;48.686;9.170;2023-06-10T02:33:27;17.80;93.90
39621;DHT22;25309;48.686;9.170;2023-06-10T02:35:55;17.70;94.00
39621;DHT22;25309;48.686;9.170;2023-06-10T02:38:23;17.70;94.00
39621;DHT22;25309;48.686;9.170;2023-06-10T02:40:50;17.70;94.10
39621;DHT22;25309;48.686;9.170;2023-06-10T02:43:17;17.70;94.10
39621;DHT22;25309;48.686;9.170;2023-06-10T02:45:46;17.70;94.00
39621;DHT22;25309;48.686;9.170;2023-06-10T02:48:14;17.70;93.90
39621;DHT22;25309;48.686;9.170;2023-06-10T02:50:41;17.70;94.00
39621;DHT22;25309;48.686;9.170;2023-06-10T02:53:29;17.70;94.10
39621;DHT22;25309;48.686;9.170;2023-06-10T02:56:03;17.60;94.10
39621;DHT22;25309;48.686;9.170;2023-06-10T02:58:31;17.60;94.20
39621;DHT22;25309;48.686;9.170;2023-06-10T03:01:00;17.60;94.30
39621;DHT22;25309;48.686;9.170;2023-06-10T03:03:34;17.60;94.30
39621;DHT22;25309;48.686;9.170;2023-06-10T03:06:07;17.50;94.40
39621;DHT22;25309;48.686;9.170;2023-06-10T03:08:35;17.50;94.40
39621;DHT22;25309;48.686;9.170;2023-06-10T03:11:07;17.50;94.40
39621;DHT22;25309;48.686;9.170;2023-06-10T03:13:35;17.50;94.50
39621;DHT22;25309;48.686;9.170;2023-06-10T03:16:04;17.40;94.70
39621;DHT22;25309;48.686;9.170;2023-06-10T03:18:34;17.40;94.70
39621;DHT22;25309;48.686;9.170;2023-06-10T03:21:02;17.30;94.70
39621;DHT22;25309;48.686;9.170;2023-06-10T03:23:30;17.20;94.80
39621;DHT22;25309;48.686;9.170;2023-06-10T03:25:57;17.20;94.90
39621;DHT22;25309;48.686;9.170;2023-06-10T03:28:24;17.10;95.10
39621;DHT22;25309;48.686;9.170;2023-06-10T03:30:52;17.10;95.20
39621;DHT22;25309;48.686;9.170;2023-06-10T03:33:23;17.10;95.30
39621;DHT22;25309;48.686;9.170;2023-06-10T03:35:50;17.10;95.30
39621;DHT22;25309;48.686;9.170;2023-06-10T03:38:18;17.10;95.50
39621;DHT22;25309;48.686;9.170;2023-06-10T03:40:45;17.10;95.70
39621;DHT22;25309;48.686;9.170;2023-06-10T03:43:12;17.10;95.50
39621;DHT22;25309;48.686;9.170;2023-06-10T03:45:40;17.10;95.70
39621;DHT22;25309;48.686;9.170;2023-06-10T03:48:08;17.10;95.60
39621;DHT22;25309;48.686;9.170;2023-06-10T03:50:46;17.10;95.70
39621;DHT22;25309;48.686;9.170;2023-06-10T03:53:14;17.10;95.80
39621;DHT22;25309;48.686;9.170;2023-06-10T03:55:42;17.10;96.00
39621;DHT22;25309;48.686;9.170;2023-06-10T03:58:10;17.10;95.90
39621;DHT22;25309;48.686;9.170;2023-06-10T04:00:40;17.10;95.80
39621;DHT22;25309;48.686;9.170;2023-06-10T04:03:12;17.10;95.90
39621;DHT22;25309;48.686;9.170;2023-06-10T04:05:47;17.00;95.90
39621;DHT22;25309;48.686;9.170;2023-06-10T04:08:14;17.00;96.10
39621;DHT22;25309;48.686;9.170;2023-06-10T04:10:41;16.90;96.20
39621;DHT22;25309;48.686;9.170;2023-06-10T04:13:08;16.90;96.30
39621;DHT22;25309;48.686;9.170;2023-06-10T04:15:42;17.00;96.40
39621;DHT22;25309;48.686;9.170;2023-06-10T04:18:14;17.00;96.30
39621;DHT22;25309;48.686;9.170;2023-06-10T04:20:43;17.10;96.30
39621;DHT22;25309;48.686;9.170;2023-06-10T04:23:12;17.10;96.20
39621;DHT22;25309;48.686;9.170;2023-06-10T04:25:42;17.20;96.30
39621;DHT22;25309;48.686;9.170;2023-06-10T04:28:09;17.20;96.10
39621;DHT22;25309;48.686;9.170;2023-06-10T04:30:36;17.30;96.10
39621;DHT22;25309;48.686;9.170;2023-06-10T04:33:04;17.40;96.00
39621;DHT22;25309;48.686;9.170;2023-06-10T04:35:33;17.40;96.00
39621;DHT22;25309;48.686;9.170;2023-06-10T04:38:01;17.40;96.10
39621;DHT22;25309;48.686;9.170;2023-06-10T04:40:31;17.50;96.10
39621;DHT22;25309;48.686;9.170;2023-06-10T04:42:59;17.60;96.10
39621;DHT22;25309;48.686;9.170;2023-06-10T04:45:26;17.60;96.10
39621;DHT22;25309;48.686;9.170;2023-06-10T04:47:53;17.70;96.20
39621;DHT22;25309;48.686;9.170;2023-06-10T04:50:22;17.90;96.20
39621;DHT22;25309;48.686;9.170;2023-06-10T04:52:49;17.90;96.00
39621;DHT22;25309;48.686;9.170;2023-06-10T04:55:16;18.00;95.90
39621;DHT22;25309;48.686;9.170;2023-06-10T04:57:45;18.10;95.80
39621;DHT22;25309;48.686;9.170;2023-06-10T05:00:12;18.10;95.60
39621;DHT22;25309;48.686;9.170;2023-06-10T05:02:40;18.20;95.90
39621;DHT22;25309;48.686;9.170;2023-06-10T05:05:07;18.20;95.90
39621;DHT22;25309;48.686;9.170;2023-06-10T05:07:35;18.30;95.90
39621;DHT22;25309;48.686;9.170;2023-06-10T05:10:02;18.30;95.80
39621;DHT22;25309;48.686;9.170;2023-06-10T05:12:29;18.40;96.10
39621;DHT22;25309;48.686;9.170;2023-06-10T05:14:58;18.40;95.50
39621;DHT22;25309;48.686;9.170;2023-06-10T05:17:25;18.40;95.70
39621;DHT22;25309;48.686;9.170;2023-06-10T05:19:52;18.50;95.50
39621;DHT22;25309;48.686;9.170;2023-06-10T05:22:19;18.60;95.40
39621;DHT22;25309;48.686;9.170;2023-06-10T05:24:46;18.60;95.30
39621;DHT22;25309;48.686;9.170;2023-06-10T05:27:13;18.70;94.90
39621;DHT22;25309;48.686;9.170;2023-06-10T05:29:40;18.70;94.90
39621;DHT22;25309;48.686;9.170;2023-06-10T05:32:09;18.80;94.90
39621;DHT22;25309;48.686;9.170;2023-06-10T05:34:36;18.90;94.90
39621;DHT22;25309;48.686;9.170;2023-06-10T05:37:04;18.90;94.80
39621;DHT22;25309;48.686;9.170;2023-06-10T05:39:31;19.00;94.80
39621;DHT22;25309;48.686;9.170;2023-06-10T05:41:58;19.00;94.70
39621;DHT22;25309;48.686;9.170;2023-06-10T05:44:26;19.10;94.60
39621;DHT22;25309;48.686;9.170;2023-06-10T05:46:53;19.10;94.40
39621;DHT22;25309;48.686;9.170;2023-06-10T05:49:21;19.00;94.50
39621;DHT22;25309;48.686;9.170;2023-06-10T05:51:48;19.00;94.50
39621;DHT22;25309;48.686;9.170;2023-06-10T05:54:15;19.00;94.70
39621;DHT22;25309;48.686;9.170;2023-06-10T05:56:42;19.10;94.80
39621;DHT22;25309;48.686;9.170;2023-06-10T05:59:09;19.10;94.90
39621;DHT22;25309;48.686;9.170;2023-06-10T06:01:36;19.20;94.70
39621;DHT22;25309;48.686;9.170;2023-06-10T06:04:03;19.20;94.70
39621;DHT22;25309;48.686;9.170;2023-06-10T06:06:31;19.30;94.70
39621;DHT22;25309;48.686;9.170;2023-06-10T06:08:59;19.30;94.60
39621;DHT22;25309;48.686;9.170;2023-06-10T06:11:25;19.40;94.60
39621;DHT22;25309;48.686;9.170;2023-06-10T06:13:53;19.40;94.40
39621;DHT22;25309;48.686;9.170;2023-06-10T06:16:20;19.50;94.30
39621;DHT22;25309;48.686;9.170;2023-06-10T06:18:47;19.60;94.50
39621;DHT22;25309;48.686;9.170;2023-06-10T06:21:14;19.70;94.60
39621;DHT22;25309;48.686;9.170;2023-06-10T06:23:42;19.80;94.60
39621;DHT22;25309;48.686;9.170;2023-06-10T06:26:09;19.80;94.30
39621;DHT22;25309;48.686;9.170;2023-06-10T06:28:36;19.90;94.50
39621;DHT22;25309;48.686;9.170;2023-06-10T06:31:03;20.00;94.10
39621;DHT22;25309;48.686;9.170;2023-06-10T06:33:30;20.10;94.20
39621;DHT22;25309;48.686;9.170;2023-06-10T06:35:57;20.10;93.80
39621;DHT22;25309;48.686;9.170;2023-06-10T06:38:24;20.10;94.00
39621;DHT22;25309;48.686;9.170;2023-06-10T06:40:53;20.20;93.80
39621;DHT22;25309;48.686;9.170;2023-06-10T06:43:20;20.20;94.00
39621;DHT22;25309;48.686;9.170;2023-06-10T06:45:55;20.30;94.30
39621;DHT22;25309;48.686;9.170;2023-06-10T06:48:22;20.30;93.60
39621;DHT22;25309;48.686;9.170;2023-06-10T06:50:49;20.40;93.70
39621;DHT22;25309;48.686;9.170;2023-06-10T06:53:16;20.50;93.70
39621;DHT22;25309;48.686;9.170;2023-06-10T06:55:43;20.60;93.60
39621;DHT22;25309;48.686;9.170;2023-06-10T06:58:12;20.70;93.50
39621;DHT22;25309;48.686;9.170;2023-06-10T07:00:38;20.70;93.40
39621;DHT22;25309;48.686;9.170;2023-06-10T07:03:06;20.90;93.40
39621;DHT22;25309;48.686;9.170;2023-06-10T07:05:33;21.00;93.40
39621;DHT22;25309;48.686;9.170;2023-06-10T07:08:00;21.10;93.10
39621;DHT22;25309;48.686;9.170;2023-06-10T07:10:28;21.20;93.10
39621;DHT22;25309;48.686;9.170;2023-06-10T07:12:55;21.20;92.80
39621;DHT22;25309;48.686;9.170;2023-06-10T07:15:23;21.20;92.60
39621;DHT22;25309;48.686;9.170;2023-06-10T07:17:50;21.20;92.70
39621;DHT22;25309;48.686;9.170;2023-06-10T07:20:17;21.30;93.00
39621;DHT22;25309;48.686;9.170;2023-06-10T07:22:44;21.30;92.90
39621;DHT22;25309;48.686;9.170;2023-06-10T07:25:11;21.40;92.80
39621;DHT22;25309;48.686;9.170;2023-06-10T07:27:38;21.50;92.90
39621;DHT22;25309;48.686;9.170;2023-06-10T07:30:06;21.60;92.40
39621;DHT22;25309;48.686;9.170;2023-06-10T07:32:36;21.70;92.40
39621;DHT22;25309;48.686;9.170;2023-06-10T07:35:06;21.70;92.40
39621;DHT22;25309;48.686;9.170;2023-06-10T07:37:34;21.80;92.70
39621;DHT22;25309;48.686;9.170;2023-06-10T07:40:01;21.90;92.40
39621;DHT22;25309;48.686;9.170;2023-06-10T07:42:28;22.00;92.20
39621;DHT22;25309;48.686;9.170;2023-06-10T07:44:54;22.10;92.10
39621;DHT22;25309;48.686;9.170;2023-06-10T07:47:22;22.10;92.10
39621;DHT22;25309;48.686;9.170;2023-06-10T07:49:50;22.20;92.20
39621;DHT22;25309;48.686;9.170;2023-06-10T07:52:17;22.40;91.50
39621;DHT22;25309;48.686;9.170;2023-06-10T07:54:44;22.30;91.60
39621;DHT22;25309;48.686;9.170;2023-06-10T07:57:11;22.30;91.60
39621;DHT22;25309;48.686;9.170;2023-06-10T07:59:38;22.40;91.50
39621;DHT22;25309;48.686;9.170;2023-06-10T08:02:05;22.50;91.30
39621;DHT22;25309;48.686;9.170;2023-06-10T08:04:32;22.50;91.20
39621;DHT22;25309;48.686;9.170;2023-06-10T08:07:03;22.40;91.10
39621;DHT22;25309;48.686;9.170;2023-06-10T08:09:31;22.40;91.10
39621;DHT22;25309;48.686;9.170;2023-06-10T08:11:58;22.50;91.70
39621;DHT22;25309;48.686;9.170;2023-06-10T08:14:25;22.60;91.80
39621;DHT22;25309;48.686;9.170;2023-06-10T08:16:51;22.60;91.50
39621;DHT22;25309;48.686;9.170;2023-06-10T08:19:18;22.80;91.20
39621;DHT22;25309;48.686;9.170;2023-06-10T08:21:45;22.80;90.60
39621;DHT22;25309;48.686;9.170;2023-06-10T08:24:14;22.80;90.80
39621;DHT22;25309;48.686;9.170;2023-06-10T08:26:43;22.90;91.50
39621;DHT22;25309;48.686;9.170;2023-06-10T08:29:12;23.10;90.90
39621;DHT22;25309;48.686;9.170;2023-06-10T08:31:41;23.30;90.70
39621;DHT22;25309;48.686;9.170;2023-06-10T08:34:09;23.40;90.30
39621;DHT22;25309;48.686;9.170;2023-06-10T08:36:36;23.50;90.00
39621;DHT22;25309;48.686;9.170;2023-06-10T08:39:03;23.60;88.70
39621;DHT22;25309;48.686;9.170;2023-06-10T08:41:35;23.60;89.30
39621;DHT22;25309;48.686;9.170;2023-06-10T08:44:09;23.80;89.40
39621;DHT22;25309;48.686;9.170;2023-06-10T08:46:38;23.90;87.60
39621;DHT22;25309;48.686;9.170;2023-06-10T08:49:08;24.00;87.80
39621;DHT22;25309;48.686;9.170;2023-06-10T08:51:36;24.10;87.20
39621;DHT22;25309;48.686;9.170;2023-06-10T08:54:15;24.20;86.50
39621;DHT22;25309;48.686;9.170;2023-06-10T08:56:49;24.30;85.90
39621;DHT22;25309;48.686;9.170;2023-06-10T08:59:18;24.20;86.00
39621;DHT22;25309;48.686;9.170;2023-06-10T09:01:47;24.30;89.50
39621;DHT22;25309;48.686;9.170;2023-06-10T09:04:14;24.20;84.80
39621;DHT22;25309;48.686;9.170;2023-06-10T09:06:44;24.30;86.10
39621;DHT22;25309;48.686;9.170;2023-06-10T09:09:12;24.40;86.00
39621;DHT22;25309;48.686;9.170;2023-06-10T09:11:41;24.30;86.20
39621;DHT22;25309;48.686;9.170;2023-06-10T09:14:10;24.40;86.50
39621;DHT22;25309;48.686;9.170;2023-06-10T09:16:38;24.60;85.90
39621;DHT22;25309;48.686;9.170;2023-06-10T09:19:06;24.70;86.10
39621;DHT22;25309;48.686;9.170;2023-06-10T09:21:39;24.90;85.30
39621;DHT22;25309;48.686;9.170;2023-06-10T09:24:06;25.10;84.90
39621;DHT22;25309;48.686;9.170;2023-06-10T09:26:33;25.20;84.80
39621;DHT22;25309;48.686;9.170;2023-06-10T09:29:04;25.30;83.30
39621;DHT22;25309;48.686;9.170;2023-06-10T09:31:35;25.40;83.50
39621;DHT22;25309;48.686;9.170;2023-06-10T09:34:07;25.50;83.40
39621;DHT22;25309;48.686;9.170;2023-06-10T09:36:35;25.60;82.40
39621;DHT22;25309;48.686;9.170;2023-06-10T09:39:02;25.70;82.10
39621;DHT22;25309;48.686;9.170;2023-06-10T09:41:33;25.80;83.30
39621;DHT22;25309;48.686;9.170;2023-06-10T09:44:01;26.00;82.60
39621;DHT22;25309;48.686;9.170;2023-06-10T09:46:32;26.10;82.30
39621;DHT22;25309;48.686;9.170;2023-06-10T09:49:00;26.30;82.40
39621;DHT22;25309;48.686;9.170;2023-06-10T09:51:27;26.50;81.90
39621;DHT22;25309;48.686;9.170;2023-06-10T09:53:54;26.70;81.60
39621;DHT22;25309;48.686;9.170;2023-06-10T09:56:21;26.90;80.70
39621;DHT22;25309;48.686;9.170;2023-06-10T09:58:58;27.00;80.80
39621;DHT22;25309;48.686;9.170;2023-06-10T10:01:25;27.20;79.80
39621;DHT22;25309;48.686;9.170;2023-06-10T10:03:54;27.30;79.40
39621;DHT22;25309;48.686;9.170;2023-06-10T10:06:22;27.50;79.60
39621;DHT22;25309;48.686;9.170;2023-06-10T10:08:50;27.70;77.90
39621;DHT22;25309;48.686;9.170;2023-06-10T10:11:18;27.90;78.00
39621;DHT22;25309;48.686;9.170;2023-06-10T10:13:48;28.20;76.80
39621;DHT22;25309;48.686;9.170;2023-06-10T10:16:17;28.40;77.50
39621;DHT22;25309;48.686;9.170;2023-06-10T10:18:51;28.60;75.80
39621;DHT22;25309;48.686;9.170;2023-06-10T10:21:22;28.80;72.90
39621;DHT22;25309;48.686;9.170;2023-06-10T10:23:55;28.80;72.10
39621;DHT22;25309;48.686;9.170;2023-06-10T10:26:25;28.90;73.40
39621;DHT22;25309;48.686;9.170;2023-06-10T10:28:58;29.00;73.30
39621;DHT22;25309;48.686;9.170;2023-06-10T10:31:29;28.90;72.40
39621;DHT22;25309;48.686;9.170;2023-06-10T10:34:00;29.10;73.30
39621;DHT22;25309;48.686;9.170;2023-06-10T10:36:29;29.30;73.00
39621;DHT22;25309;48.686;9.170;2023-06-10T10:38:56;29.60;72.90
39621;DHT22;25309;48.686;9.170;2023-06-10T10:41:26;29.80;71.80
39621;DHT22;25309;48.686;9.170;2023-06-10T10:43:54;30.10;71.90
39621;DHT22;25309;48.686;9.170;2023-06-10T10:46:21;30.40;70.80
39621;DHT22;25309;48.686;9.170;2023-06-10T10:48:52;30.60;69.50
39621;DHT22;25309;48.686;9.170;2023-06-10T10:51:22;30.80;68.50
39621;DHT22;25309;48.686;9.170;2023-06-10T10:54:12;31.10;67.80
39621;DHT22;25309;48.686;9.170;2023-06-10T10:57:09;31.50;67.00
39621;DHT22;25309;48.686;9.170;2023-06-10T10:59:52;31.70;67.30
39621;DHT22;25309;48.686;9.170;2023-06-10T11:02:32;32.00;67.30
39621;DHT22;25309;48.686;9.170;2023-06-10T11:05:00;32.40;65.80
39621;DHT22;25309;48.686;9.170;2023-06-10T11:07:29;32.80;63.50
39621;DHT22;25309;48.686;9.170;2023-06-10T11:10:02;33.10;63.80
39621;DHT22;25309;48.686;9.170;2023-06-10T11:12:41;33.40;62.20
39621;DHT22;25309;48.686;9.170;2023-06-10T11:15:09;33.60;63.30
39621;DHT22;25309;48.686;9.170;2023-06-10T11:17:36;34.10;62.60
39621;DHT22;25309;48.686;9.170;2023-06-10T11:20:04;34.50;61.20
39621;DHT22;25309;48.686;9.170;2023-06-10T11:22:32;34.80;59.80
39621;DHT22;25309;48.686;9.170;2023-06-10T11:25:00;34.50;59.00
39621;DHT22;25309;48.686;9.170;2023-06-10T11:27:37;34.50;59.60
39621;DHT22;25309;48.686;9.170;2023-06-10T11:30:19;34.40;59.50
39621;DHT22;25309;48.686;9.170;2023-06-10T11:32:51;34.60;58.60
39621;DHT22;25309;48.686;9.170;2023-06-10T11:35:19;34.60;57.70
39621;DHT22;25309;48.686;9.170;2023-06-10T11:37:48;34.80;58.50
39621;DHT22;25309;48.686;9.170;2023-06-10T11:40:17;35.10;58.60
39621;DHT22;25309;48.686;9.170;2023-06-10T11:42:44;35.20;58.10
39621;DHT22;25309;48.686;9.170;2023-06-10T11:45:14;34.90;56.50
39621;DHT22;25309;48.686;9.170;2023-06-10T11:47:55;34.40;57.10
39621;DHT22;25309;48.686;9.170;2023-06-10T11:50:28;34.40;59.00
39621;DHT22;25309;48.686;9.170;2023-06-10T11:52:55;34.50;57.90
39621;DHT22;25309;48.686;9.170;2023-06-10T11:55:24;34.60;59.20
39621;DHT22;25309;48.686;9.170;2023-06-10T11:57:51;34.70;58.00
39621;DHT22;25309;48.686;9.170;2023-06-10T12:00:24;35.00;59.00
39621;DHT22;25309;48.686;9.170;2023-06-10T12:02:56;35.30;57.40
39621;DHT22;25309;48.686;9.170;2023-06-10T12:05:24;35.60;57.60
39621;DHT22;25309;48.686;9.170;2023-06-10T12:08:09;35.80;57.20
39621;DHT22;25309;48.686;9.170;2023-06-10T12:10:42;36.40;56.90
39621;DHT22;25309;48.686;9.170;2023-06-10T12:13:09;36.20;55.20
39621;DHT22;25309;48.686;9.170;2023-06-10T12:15:36;35.90;55.70
39621;DHT22;25309;48.686;9.170;2023-06-10T12:18:04;35.90;56.00
39621;DHT22;25309;48.686;9.170;2023-06-10T12:20:32;35.90;55.40
39621;DHT22;25309;48.686;9.170;2023-06-10T12:23:09;35.80;55.20
39621;DHT22;25309;48.686;9.170;2023-06-10T12:25:37;35.90;56.40
39621;DHT22;25309;48.686;9.170;2023-06-10T12:28:10;36.00;56.50
39621;DHT22;25309;48.686;9.170;2023-06-10T12:30:37;36.00;56.60
39621;DHT22;25309;48.686;9.170;2023-06-10T12:33:04;35.90;57.10
39621;DHT22;25309;48.686;9.170;2023-06-10T12:35:47;35.70;57.20
39621;DHT22;25309;48.686;9.170;2023-06-10T12:38:15;35.70;57.90
39621;DHT22;25309;48.686;9.170;2023-06-10T12:40:48;35.90;57.20
39621;DHT22;25309;48.686;9.170;2023-06-10T12:43:20;36.10;56.60
39621;DHT22;25309;48.686;9.170;2023-06-10T12:45:50;36.30;56.80
39621;DHT22;25309;48.686;9.170;2023-06-10T12:48:19;36.60;56.20
39621;DHT22;25309;48.686;9.170;2023-06-10T12:50:50;36.80;55.60
39621;DHT22;25309;48.686;9.170;2023-06-10T12:53:19;36.70;55.60
39621;DHT22;25309;48.686;9.170;2023-06-10T12:55:47;37.00;55.90
39621;DHT22;25309;48.686;9.170;2023-06-10T12:58:14;37.10;55.70
39621;DHT22;25309;48.686;9.170;2023-06-10T13:00:42;36.70;54.40
39621;DHT22;25309;48.686;9.170;2023-06-10T13:03:09;36.00;54.80
39621;DHT22;25309;48.686;9.170;2023-06-10T13:05:37;35.50;55.30
39621;DHT22;25309;48.686;9.170;2023-06-10T13:08:06;35.40;55.10
39621;DHT22;25309;48.686;9.170;2023-06-10T13:10:34;35.60;55.20
39621;DHT22;25309;48.686;9.170;2023-06-10T13:13:02;35.80;55.30
39621;DHT22;25309;48.686;9.170;2023-06-10T13:15:32;36.00;55.30
39621;DHT22;25309;48.686;9.170;2023-06-10T13:18:00;36.00;54.30
39621;DHT22;25309;48.686;9.170;2023-06-10T13:20:27;36.00;54.50
39621;DHT22;25309;48.686;9.170;2023-06-10T13:22:54;36.30;55.50
39621;DHT22;25309;48.686;9.170;2023-06-10T13:25:21;36.50;54.70
39621;DHT22;25309;48.686;9.170;2023-06-10T13:27:48;36.80;53.70
39621;DHT22;25309;48.686;9.170;2023-06-10T13:30:15;37.10;54.20
39621;DHT22;25309;48.686;9.170;2023-06-10T13:32:42;37.20;54.20
39621;DHT22;25309;48.686;9.170;2023-06-10T13:35:11;36.90;54.80
39621;DHT22;25309;48.686;9.170;2023-06-10T13:37:38;36.40;55.70
39621;DHT22;25309;48.686;9.170;2023-06-10T13:40:06;35.60;55.60
39621;DHT22;25309;48.686;9.170;2023-06-10T13:42:34;34.90;56.70
39621;DHT22;25309;48.686;9.170;2023-06-10T13:45:03;34.40;57.10
39621;DHT22;25309;48.686;9.170;2023-06-10T13:47:30;34.00;57.50
39621;DHT22;25309;48.686;9.170;2023-06-10T13:49:57;33.70;58.10
39621;DHT22;25309;48.686;9.170;2023-06-10T13:52:26;33.50;58.80
39621;DHT22;25309;48.686;9.170;2023-06-10T13:54:53;33.60;59.00
39621;DHT22;25309;48.686;9.170;2023-06-10T13:57:20;34.00;58.70
39621;DHT22;25309;48.686;9.170;2023-06-10T13:59:47;34.70;57.70
39621;DHT22;25309;48.686;9.170;2023-06-10T14:02:14;35.40;57.00
39621;DHT22;25309;48.686;9.170;2023-06-10T14:04:41;35.90;56.10
39621;DHT22;25309;48.686;9.170;2023-06-10T14:07:08;35.90;55.90
39621;DHT22;25309;48.686;9.170;2023-06-10T14:09:36;35.60;56.20
39621;DHT22;25309;48.686;9.170;2023-06-10T14:12:03;35.10;55.90
39621;DHT22;25309;48.686;9.170;2023-06-10T14:14:32;34.60;56.20
39621;DHT22;25309;48.686;9.170;2023-06-10T14:16:59;34.50;57.60
39621;DHT22;25309;48.686;9.170;2023-06-10T14:19:27;34.40;57.60
39621;DHT22;25309;48.686;9.170;2023-06-10T14:21:54;34.50;57.20
39621;DHT22;25309;48.686;9.170;2023-06-10T14:24:22;34.50;56.80
39621;DHT22;25309;48.686;9.170;2023-06-10T14:26:50;34.10;56.40
39621;DHT22;25309;48.686;9.170;2023-06-10T14:29:17;33.80;57.20
39621;DHT22;25309;48.686;9.170;2023-06-10T14:31:46;33.50;57.40
39621;DHT22;25309;48.686;9.170;2023-06-10T14:34:13;33.70;57.50
39621;DHT22;25309;48.686;9.170;2023-06-10T14:36:40;34.00;57.60
39621;DHT22;25309;48.686;9.170;2023-06-10T14:39:07;33.90;57.50
39621;DHT22;25309;48.686;9.170;2023-06-10T14:41:34;33.70;58.10
39621;DHT22;25309;48.686;9.170;2023-06-10T14:44:02;33.40;58.50
39621;DHT22;25309;48.686;9.170;2023-06-10T14:46:29;33.00;58.90
39621;DHT22;25309;48.686;9.170;2023-06-10T14:48:56;32.60;59.00
39621;DHT22;25309;48.686;9.170;2023-06-10T14:51:23;32.30;59.60
39621;DHT22;25309;48.686;9.170;2023-06-10T14:53:50;32.00;60.00
39621;DHT22;25309;48.686;9.170;2023-06-10T14:56:17;31.90;60.20
39621;DHT22;25309;48.686;9.170;2023-06-10T14:58:44;31.60;60.90
39621;DHT22;25309;48.686;9.170;2023-06-10T15:01:12;31.40;61.20
39621;DHT22;25309;48.686;9.170;2023-06-10T15:03:39;31.20;61.90
39621;DHT22;25309;48.686;9.170;2023-06-10T15:06:06;31.30;62.70
39621;DHT22;25309;48.686;9.170;2023-06-10T15:08:33;31.30;62.70
39621;DHT22;25309;48.686;9.170;2023-06-10T15:11:00;31.20;62.70
39621;DHT22;25309;48.686;9.170;2023-06-10T15:13:28;31.20;63.10
39621;DHT22;25309;48.686;9.170;2023-06-10T15:15:55;31.30;63.30
39621;DHT22;25309;48.686;9.170;2023-06-10T15:18:24;31.50;63.30
39621;DHT22;25309;48.686;9.170;2023-06-10T15:20:51;31.80;62.60
39621;DHT22;25309;48.686;9.170;2023-06-10T15:23:18;31.90;62.20
39621;DHT22;25309;48.686;9.170;2023-06-10T15:25:45;32.00;61.80
39621;DHT22;25309;48.686;9.170;2023-06-10T15:28:13;31.90;62.00
39621;DHT22;25309;48.686;9.170;2023-06-10T15:30:40;31.90;61.60
39621;DHT22;25309;48.686;9.170;2023-06-10T15:33:07;32.00;61.60
39621;DHT22;25309;48.686;9.170;2023-06-10T15:35:35;32.00;61.70
39621;DHT22;25309;48.686;9.170;2023-06-10T15:38:02;32.00;62.00
39621;DHT22;25309;48.686;9.170;2023-06-10T15:40:29;32.10;61.40
39621;DHT22;25309;48.686;9.170;2023-06-10T15:42:56;32.10;61.40